createdAt,value
2022-08-31T00:02:22.623Z,7.83
2022-08-31T00:07:27.583Z,8.50
2022-08-31T00:12:32.051Z,8.40
2022-08-31T00:17:35.101Z,4.97
2022-08-31T00:22:38.222Z,7.30
2022-08-31T00:27:42.546Z,8.00
2022-08-31T00:32:45.532Z,8.70
2022-08-31T00:37:51.186Z,8.10
2022-08-31T00:42:56.467Z,8.87
2022-08-31T00:47:59.456Z,7.53
2022-08-31T00:53:02.622Z,9.20
2022-08-31T00:58:11.800Z,8.90
2022-08-31T01:03:14.837Z,7.30
2022-08-31T01:08:17.921Z,5.83
2022-08-31T01:13:26.149Z,7.23
2022-08-31T01:18:31.779Z,6.17
2022-08-31T01:23:40.093Z,7.30
2022-08-31T01:28:43.761Z,7.53
2022-08-31T01:33:46.778Z,6.83
2022-08-31T01:38:53.353Z,6.60
2022-08-31T01:43:57.202Z,7.50
2022-08-31T01:49:00.730Z,8.30
2022-08-31T01:54:05.757Z,6.23
2022-08-31T01:59:10.457Z,7.00
2022-08-31T02:04:35.079Z,7.50
2022-08-31T02:09:39.469Z,6.40
2022-08-31T02:14:42.541Z,5.80
2022-08-31T02:19:45.582Z,6.13
2022-08-31T02:24:51.767Z,7.73
2022-08-31T02:29:54.863Z,7.53
2022-08-31T02:34:58.305Z,7.00
2022-08-31T02:40:02.976Z,7.50
2022-08-31T02:45:09.060Z,8.30
2022-08-31T02:50:12.481Z,6.80
2022-08-31T02:55:17.982Z,6.43
2022-08-31T03:00:22.783Z,5.10
2022-08-31T03:05:26.924Z,8.50
2022-08-31T03:10:31.352Z,6.20
2022-08-31T03:15:34.445Z,9.70
2022-08-31T03:20:39.890Z,9.47
2022-08-31T03:25:44.268Z,8.80
2022-08-31T03:30:47.818Z,6.40
2022-08-31T03:35:51.446Z,9.00
2022-08-31T03:40:56.447Z,7.77
2022-08-31T03:45:59.457Z,7.40
2022-08-31T03:51:02.662Z,7.20
2022-08-31T03:56:11.271Z,9.73
2022-08-31T04:01:17.979Z,10.33
2022-08-31T04:06:41.128Z,9.67
2022-08-31T04:12:04.557Z,10.40
2022-08-31T04:17:25.834Z,9.37
2022-08-31T04:22:36.759Z,9.20
2022-08-31T04:28:04.471Z,8.87
2022-08-31T04:33:07.572Z,7.27
2022-08-31T04:38:12.110Z,6.97
2022-08-31T04:43:18.566Z,11.70
2022-08-31T04:48:21.737Z,11.33
2022-08-31T04:53:25.038Z,10.53
2022-08-31T04:58:29.440Z,10.60
2022-08-31T05:03:32.670Z,9.33
2022-08-31T05:08:36.133Z,8.30
2022-08-31T05:13:41.649Z,9.80
2022-08-31T05:18:47.515Z,10.50
2022-08-31T05:23:50.909Z,11.80
2022-08-31T05:28:55.545Z,9.87
2022-08-31T05:33:59.567Z,10.87
2022-08-31T05:39:13.223Z,11.40
2022-08-31T05:44:21.373Z,18.37
2022-08-31T05:49:28.114Z,10.87
2022-08-31T05:54:35.582Z,12.07
2022-08-31T05:59:41.107Z,13.07
2022-08-31T06:04:45.261Z,12.77
2022-08-31T06:09:48.434Z,18.07
2022-08-31T06:14:56.936Z,12.70
2022-08-31T06:20:00.346Z,13.73
2022-08-31T06:25:04.807Z,12.60
2022-08-31T06:30:11.580Z,14.40
2022-08-31T06:35:15.013Z,15.17
2022-08-31T06:40:36.864Z,10.47
2022-08-31T06:45:59.524Z,11.17
2022-08-31T06:51:09.337Z,14.87
2022-08-31T06:56:20.625Z,13.37
2022-08-31T07:01:44.413Z,16.73
2022-08-31T07:06:54.651Z,11.40
2022-08-31T07:11:57.845Z,15.33
2022-08-31T07:17:03.979Z,10.50
2022-08-31T07:22:13.430Z,9.83
2022-08-31T07:27:20.718Z,8.23
2022-08-31T07:32:30.019Z,8.40
2022-08-31T07:37:51.056Z,12.30
2022-08-31T07:43:02.199Z,12.83
2022-08-31T07:48:07.436Z,7.37
2022-08-31T07:53:47.537Z,8.70
2022-08-31T07:59:15.089Z,9.60
2022-08-31T08:04:25.543Z,10.37
2022-08-31T08:09:30.867Z,10.60
2022-08-31T08:15:08.787Z,11.43
2022-08-31T08:20:37.182Z,12.40
2022-08-31T08:25:40.958Z,11.13
2022-08-31T08:30:58.426Z,11.83
2022-08-31T08:36:07.825Z,8.63
2022-08-31T08:41:15.333Z,7.40
2022-08-31T08:46:34.443Z,7.10
2022-08-31T08:51:40.810Z,9.33
2022-08-31T08:56:49.049Z,11.03
2022-08-31T09:02:02.144Z,8.13
2022-08-31T09:07:31.225Z,6.97
2022-08-31T09:12:47.044Z,7.53
2022-08-31T09:18:00.217Z,9.53
2022-08-31T09:23:08.044Z,8.20
2022-08-31T09:28:16.441Z,7.90
2022-08-31T09:33:21.428Z,7.67
2022-08-31T09:38:30.908Z,5.77
2022-08-31T09:43:38.647Z,5.80
2022-08-31T09:48:51.471Z,5.90
2022-08-31T09:54:17.825Z,5.67
2022-08-31T09:59:31.495Z,5.10
2022-08-31T10:04:38.175Z,7.53
2022-08-31T10:09:47.117Z,5.90
2022-08-31T10:14:54.853Z,5.20
2022-08-31T10:20:05.985Z,5.13
2022-08-31T10:25:22.180Z,4.83
2022-08-31T10:30:32.220Z,4.10
2022-08-31T10:35:44.926Z,4.20
2022-08-31T10:40:53.441Z,3.67
2022-08-31T10:45:56.579Z,3.20
2022-08-31T10:51:14.248Z,3.33
2022-08-31T10:56:24.751Z,3.93
2022-08-31T11:01:39.279Z,5.83
2022-08-31T11:06:52.667Z,3.80
2022-08-31T11:12:06.962Z,2.90
2022-08-31T11:17:28.692Z,5.30
2022-08-31T11:22:47.105Z,3.60
2022-08-31T11:27:56.164Z,4.90
2022-08-31T11:33:03.183Z,3.63
2022-08-31T11:38:06.216Z,4.03
2022-08-31T11:43:15.128Z,3.80
2022-08-31T11:48:51.551Z,3.57
2022-08-31T11:53:55.505Z,5.03
2022-08-31T11:59:21.485Z,3.20
2022-08-31T12:05:00.366Z,2.93
2022-08-31T12:10:43.214Z,4.00
2022-08-31T12:16:19.055Z,2.93
2022-08-31T12:21:48.476Z,4.03
2022-08-31T12:27:11.895Z,3.30
2022-08-31T12:32:23.367Z,2.37
2022-08-31T12:37:30.123Z,3.20
2022-08-31T12:42:35.460Z,2.10
2022-08-31T12:47:49.290Z,5.93
2022-08-31T12:53:07.946Z,3.40
2022-08-31T12:58:28.517Z,2.30
2022-08-31T13:03:33.270Z,4.50
2022-08-31T13:08:40.087Z,4.23
2022-08-31T13:13:43.244Z,3.27
2022-08-31T13:18:48.334Z,2.77
2022-08-31T13:23:51.671Z,2.80
2022-08-31T13:28:57.009Z,3.33
2022-08-31T13:34:03.395Z,4.10
2022-08-31T13:39:15.846Z,3.03
2022-08-31T13:44:23.725Z,3.20
2022-08-31T13:49:35.545Z,2.60
2022-08-31T13:54:39.072Z,2.93
2022-08-31T13:59:42.508Z,2.60
2022-08-31T14:05:01.345Z,4.30
2022-08-31T14:10:19.286Z,4.30
2022-08-31T14:15:33.517Z,5.33
2022-08-31T14:20:46.480Z,3.17
2022-08-31T14:25:58.842Z,3.83
2022-08-31T14:31:12.368Z,3.77
2022-08-31T14:36:19.340Z,4.17
2022-08-31T14:41:30.376Z,2.70
2022-08-31T14:46:34.037Z,2.73
2022-08-31T14:51:39.294Z,3.50
2022-08-31T14:56:48.902Z,4.30
2022-08-31T15:01:52.080Z,2.90
2022-08-31T15:07:06.571Z,3.63
2022-08-31T15:12:14.964Z,2.60
2022-08-31T15:17:20.527Z,3.30
2022-08-31T15:22:26.842Z,3.30
2022-08-31T15:27:31.721Z,2.97
2022-08-31T15:32:35.321Z,3.80
2022-08-31T15:37:41.237Z,5.00
2022-08-31T15:42:45.219Z,3.17
2022-08-31T15:48:05.844Z,3.50
2022-08-31T15:53:13.488Z,4.20
2022-08-31T15:58:16.624Z,4.00
2022-08-31T16:03:19.592Z,2.83
2022-08-31T16:08:28.579Z,3.20
2022-08-31T16:13:31.693Z,5.17
2022-08-31T16:18:34.692Z,2.90
2022-08-31T16:23:39.752Z,5.10
2022-08-31T16:28:43.850Z,4.33
2022-08-31T16:33:48.161Z,3.07
2022-08-31T16:38:54.487Z,2.90
2022-08-31T16:44:18.524Z,4.30
2022-08-31T16:49:38.848Z,3.20
2022-08-31T16:54:48.024Z,3.20
2022-08-31T16:59:51.599Z,4.23
2022-08-31T17:04:54.794Z,4.27
2022-08-31T17:10:07.110Z,4.30
2022-08-31T17:15:12.188Z,3.27
2022-08-31T17:20:16.373Z,3.50
2022-08-31T17:25:24.109Z,4.50
2022-08-31T17:30:27.335Z,4.90
2022-08-31T17:35:32.024Z,2.47
2022-08-31T17:40:36.459Z,5.43
2022-08-31T17:45:39.662Z,4.30
2022-08-31T17:50:43.280Z,4.40
2022-08-31T17:55:57.466Z,2.60
2022-08-31T18:01:00.698Z,3.60
2022-08-31T18:06:03.755Z,5.57
2022-08-31T18:11:08.360Z,4.80
2022-08-31T18:16:14.066Z,2.57
2022-08-31T18:21:18.730Z,4.67
2022-08-31T18:26:26.214Z,3.50
2022-08-31T18:31:31.393Z,3.30
2022-08-31T18:36:38.841Z,2.77
2022-08-31T18:42:01.130Z,3.73
2022-08-31T18:47:07.919Z,8.13
2022-08-31T18:52:19.560Z,3.10
2022-08-31T18:57:26.566Z,15.53
2022-08-31T19:02:29.770Z,4.40
2022-08-31T19:07:32.857Z,9.97
2022-08-31T19:12:39.138Z,8.20
2022-08-31T19:17:45.544Z,4.83
2022-08-31T19:22:48.622Z,4.50
2022-08-31T19:27:53.435Z,9.50
2022-08-31T19:32:56.971Z,4.07
2022-08-31T19:37:59.997Z,7.70
2022-08-31T19:48:32.099Z,5.90
2022-08-31T19:53:35.151Z,5.93
2022-08-31T19:58:48.449Z,4.37
2022-08-31T20:03:52.034Z,7.30
2022-08-31T20:08:55.552Z,4.33
2022-08-31T20:14:01.335Z,9.63
2022-08-31T20:19:08.816Z,4.07
2022-08-31T20:24:14.354Z,5.33
2022-08-31T20:29:20.272Z,6.10
2022-08-31T20:34:26.432Z,7.10
2022-08-31T20:39:31.829Z,4.50
2022-08-31T20:44:38.332Z,4.87
2022-08-31T20:49:43.007Z,5.20
2022-08-31T20:54:46.257Z,6.00
2022-08-31T20:59:51.407Z,6.50
2022-08-31T21:04:54.435Z,4.43
2022-08-31T21:09:58.744Z,5.10
2022-08-31T21:15:05.718Z,4.37
2022-08-31T21:20:09.425Z,6.50
2022-08-31T21:25:12.923Z,5.37
2022-08-31T21:30:18.779Z,6.37
2022-08-31T21:35:21.898Z,6.30
2022-08-31T21:40:24.958Z,6.20
2022-08-31T21:45:29.591Z,6.77
2022-08-31T21:50:32.590Z,7.33
2022-08-31T21:55:38.523Z,8.00
2022-08-31T22:00:43.039Z,4.70
2022-08-31T22:05:46.033Z,9.00
2022-08-31T22:10:50.144Z,5.10
2022-08-31T22:15:56.638Z,8.80
2022-08-31T22:20:59.837Z,7.93
2022-08-31T22:26:03.564Z,5.77
2022-08-31T22:31:08.967Z,7.33
2022-08-31T22:36:19.515Z,6.73
2022-08-31T22:41:36.189Z,6.83
2022-08-31T22:46:41.238Z,8.10
2022-08-31T22:51:46.949Z,9.97
2022-08-31T22:56:50.756Z,7.30
2022-08-31T23:01:57.024Z,7.87
2022-08-31T23:07:01.448Z,6.33
2022-08-31T23:12:06.213Z,12.90
2022-08-31T23:17:10.658Z,7.33
2022-08-31T23:22:15.460Z,5.17
2022-08-31T23:27:21.629Z,7.37
2022-08-31T23:32:29.109Z,8.17
2022-08-31T23:37:33.088Z,6.40
2022-08-31T23:42:41.160Z,8.80
2022-08-31T23:47:45.734Z,7.73
2022-08-31T23:52:52.150Z,5.53
2022-08-31T23:57:57.339Z,6.13
